sensor_id;sensor_type;location;lat;lon;timestamp;pressure;altitude;pressure_sealevel;temperature;humidity
44079;BME280;29744;49.078;12.878;2023-12-07T00:02:28;96492.91;;;15.26;34.30
44079;BME280;29744;49.078;12.878;2023-12-07T00:07:29;96491.66;;;15.24;34.44
44079;BME280;29744;49.078;12.878;2023-12-07T00:12:29;96493.91;;;15.22;34.50
44079;BME280;29744;49.078;12.878;2023-12-07T00:17:29;96491.53;;;15.20;34.35
44079;BME280;29744;49.078;12.878;2023-12-07T00:22:30;96501.06;;;15.18;34.40
44079;BME280;29744;49.078;12.878;2023-12-07T00:27:30;96497.13;;;15.15;34.25
44079;BME280;29744;49.078;12.878;2023-12-07T00:32:30;96499.34;;;15.13;34.73
44079;BME280;29744;49.078;12.878;2023-12-07T00:37:31;96503.97;;;15.12;34.56
44079;BME280;29744;49.078;12.878;2023-12-07T00:42:31;96505.41;;;15.10;34.42
44079;BME280;29744;49.078;12.878;2023-12-07T00:47:31;96509.22;;;15.09;34.49
44079;BME280;29744;49.078;12.878;2023-12-07T00:52:32;96513.03;;;15.08;34.60
44079;BME280;29744;49.078;12.878;2023-12-07T00:57:32;96509.06;;;15.05;34.60
44079;BME280;29744;49.078;12.878;2023-12-07T01:02:32;96510.19;;;15.04;34.44
44079;BME280;29744;49.078;12.878;2023-12-07T01:07:33;96514.31;;;15.02;34.47
44079;BME280;29744;49.078;12.878;2023-12-07T01:12:33;96527.34;;;15.00;34.75
44079;BME280;29744;49.078;12.878;2023-12-07T01:17:33;96527.66;;;14.98;34.70
44079;BME280;29744;49.078;12.878;2023-12-07T01:22:33;96533.38;;;14.97;34.76
44079;BME280;29744;49.078;12.878;2023-12-07T01:27:34;96535.63;;;14.95;34.65
44079;BME280;29744;49.078;12.878;2023-12-07T01:32:35;96537.06;;;14.92;34.38
44079;BME280;29744;49.078;12.878;2023-12-07T01:37:35;96539.28;;;14.90;35.00
44079;BME280;29744;49.078;12.878;2023-12-07T01:42:37;96535.00;;;14.89;34.80
44079;BME280;29744;49.078;12.878;2023-12-07T01:47:37;96544.53;;;14.87;34.56
44079;BME280;29744;49.078;12.878;2023-12-07T01:52:44;96542.97;;;14.86;34.80
44079;BME280;29744;49.078;12.878;2023-12-07T01:57:45;96551.38;;;14.84;34.51
44079;BME280;29744;49.078;12.878;2023-12-07T02:02:46;96548.22;;;14.82;35.08
44079;BME280;29744;49.078;12.878;2023-12-07T02:07:47;96555.53;;;14.81;34.96
44079;BME280;29744;49.078;12.878;2023-12-07T02:12:48;96563.94;;;14.80;34.55
44079;BME280;29744;49.078;12.878;2023-12-07T02:18:00;96562.69;;;14.77;34.58
44079;BME280;29744;49.078;12.878;2023-12-07T02:23:06;96558.72;;;14.75;34.77
44079;BME280;29744;49.078;12.878;2023-12-07T02:28:07;96567.94;;;14.74;35.13
44079;BME280;29744;49.078;12.878;2023-12-07T02:33:07;96565.56;;;14.72;35.19
44079;BME280;29744;49.078;12.878;2023-12-07T02:38:09;96569.34;;;14.71;35.13
44079;BME280;29744;49.078;12.878;2023-12-07T02:43:09;96577.78;;;14.70;34.81
44079;BME280;29744;49.078;12.878;2023-12-07T02:48:10;96583.50;;;14.68;34.97
44079;BME280;29744;49.078;12.878;2023-12-07T02:53:10;96583.81;;;14.67;34.89
44079;BME280;29744;49.078;12.878;2023-12-07T02:58:11;96582.56;;;14.64;34.98
44079;BME280;29744;49.078;12.878;2023-12-07T03:03:11;96600.66;;;14.64;35.13
44079;BME280;29744;49.078;12.878;2023-12-07T03:08:11;96596.69;;;14.61;34.71
44079;BME280;29744;49.078;12.878;2023-12-07T03:13:12;96596.69;;;14.61;35.18
44079;BME280;29744;49.078;12.878;2023-12-07T03:18:12;96599.72;;;14.60;35.00
44079;BME280;29744;49.078;12.878;2023-12-07T03:23:13;96596.53;;;14.58;34.88
44079;BME280;29744;49.078;12.878;2023-12-07T03:28:13;96595.75;;;14.57;35.05
44079;BME280;29744;49.078;12.878;2023-12-07T03:33:13;96598.75;;;14.56;35.31
44079;BME280;29744;49.078;12.878;2023-12-07T03:38:14;96603.69;;;14.54;34.83
44079;BME280;29744;49.078;12.878;2023-12-07T03:43:18;96606.38;;;14.54;35.09
44079;BME280;29744;49.078;12.878;2023-12-07T03:48:18;96608.59;;;14.52;34.94
44079;BME280;29744;49.078;12.878;2023-12-07T03:53:18;96616.22;;;14.49;34.99
44079;BME280;29744;49.078;12.878;2023-12-07T03:58:19;96612.72;;;14.49;35.25
44079;BME280;29744;49.078;12.878;2023-12-07T04:03:19;96621.16;;;14.47;35.06
44079;BME280;29744;49.078;12.878;2023-12-07T04:08:19;96629.56;;;14.46;35.51
44079;BME280;29744;49.078;12.878;2023-12-07T04:13:20;96633.38;;;14.45;35.46
44079;BME280;29744;49.078;12.878;2023-12-07T04:18:20;96629.09;;;14.44;35.27
44079;BME280;29744;49.078;12.878;2023-12-07T04:23:20;96632.91;;;14.43;35.19
44079;BME280;29744;49.078;12.878;2023-12-07T04:28:21;96642.91;;;14.42;35.45
44079;BME280;29744;49.078;12.878;2023-12-07T04:33:21;96647.03;;;14.40;35.62
44079;BME280;29744;49.078;12.878;2023-12-07T04:38:22;96656.22;;;14.39;35.54
44079;BME280;29744;49.078;12.878;2023-12-07T04:43:22;96655.13;;;14.40;35.50
44079;BME280;29744;49.078;12.878;2023-12-07T04:48:22;96653.69;;;14.42;35.27
44079;BME280;29744;49.078;12.878;2023-12-07T04:53:22;96663.84;;;14.45;35.12
44079;BME280;29744;49.078;12.878;2023-12-07T04:58:24;96656.38;;;14.51;35.21
44079;BME280;29744;49.078;12.878;2023-12-07T05:03:25;96667.03;;;14.56;35.52
44079;BME280;29744;49.078;12.878;2023-12-07T05:08:25;96668.94;;;14.64;35.59
44079;BME280;29744;49.078;12.878;2023-12-07T05:13:25;96675.13;;;14.73;35.13
44079;BME280;29744;49.078;12.878;2023-12-07T05:18:26;96677.50;;;14.83;35.43
44079;BME280;29744;49.078;12.878;2023-12-07T05:23:26;96680.34;;;14.96;35.41
44079;BME280;29744;49.078;12.878;2023-12-07T05:28:27;96677.00;;;15.07;35.26
44079;BME280;29744;49.078;12.878;2023-12-07T05:33:27;96682.22;;;15.21;34.91
44079;BME280;29744;49.078;12.878;2023-12-07T05:38:28;96681.22;;;15.34;35.46
44079;BME280;29744;49.078;12.878;2023-12-07T05:43:28;96675.63;;;15.48;35.08
44079;BME280;29744;49.078;12.878;2023-12-07T05:48:29;96677.31;;;15.61;34.81
44079;BME280;29744;49.078;12.878;2023-12-07T05:53:29;96675.50;;;15.74;34.75
44079;BME280;29744;49.078;12.878;2023-12-07T05:58:32;96681.50;;;15.88;34.82
44079;BME280;29744;49.078;12.878;2023-12-07T06:03:32;96687.81;;;16.01;34.99
44079;BME280;29744;49.078;12.878;2023-12-07T06:08:33;96689.03;;;16.12;34.96
44079;BME280;29744;49.078;12.878;2023-12-07T06:13:33;96684.34;;;16.21;34.48
44079;BME280;29744;49.078;12.878;2023-12-07T06:18:33;96689.69;;;16.30;34.33
44079;BME280;29744;49.078;12.878;2023-12-07T06:23:34;96690.31;;;16.35;34.03
44079;BME280;29744;49.078;12.878;2023-12-07T06:28:35;96704.47;;;16.41;34.37
44079;BME280;29744;49.078;12.878;2023-12-07T06:33:35;96708.44;;;16.44;34.46
44079;BME280;29744;49.078;12.878;2023-12-07T06:38:35;96710.47;;;16.47;34.03
44079;BME280;29744;49.078;12.878;2023-12-07T06:43:36;96712.84;;;16.48;34.31
44079;BME280;29744;49.078;12.878;2023-12-07T06:48:36;96718.59;;;16.47;31.83
44079;BME280;29744;49.078;12.878;2023-12-07T06:53:36;96718.41;;;16.22;30.02
44079;BME280;29744;49.078;12.878;2023-12-07T06:58:37;96721.63;;;15.86;29.76
44079;BME280;29744;49.078;12.878;2023-12-07T07:03:37;96722.94;;;15.63;29.96
44079;BME280;29744;49.078;12.878;2023-12-07T07:08:37;96721.06;;;15.55;30.35
44079;BME280;29744;49.078;12.878;2023-12-07T07:13:38;96730.28;;;15.54;30.22
44079;BME280;29744;49.078;12.878;2023-12-07T07:18:39;96740.94;;;15.59;30.71
44079;BME280;29744;49.078;12.878;2023-12-07T07:23:39;96743.94;;;15.66;31.28
44079;BME280;29744;49.078;12.878;2023-12-07T07:28:40;96735.00;;;15.74;31.26
44079;BME280;29744;49.078;12.878;2023-12-07T07:33:40;96738.81;;;15.82;31.36
44079;BME280;29744;49.078;12.878;2023-12-07T07:38:41;96743.06;;;15.91;31.73
44079;BME280;29744;49.078;12.878;2023-12-07T07:43:41;96740.00;;;16.01;31.73
44079;BME280;29744;49.078;12.878;2023-12-07T07:48:43;96741.88;;;16.09;31.81
44079;BME280;29744;49.078;12.878;2023-12-07T07:53:43;96740.56;;;16.16;31.95
44079;BME280;29744;49.078;12.878;2023-12-07T07:58:43;96745.47;;;16.22;31.93
44079;BME280;29744;49.078;12.878;2023-12-07T08:03:44;96746.06;;;16.28;31.77
44079;BME280;29744;49.078;12.878;2023-12-07T08:08:44;96744.28;;;16.32;32.06
44079;BME280;29744;49.078;12.878;2023-12-07T08:13:44;96742.06;;;16.34;31.66
44079;BME280;29744;49.078;12.878;2023-12-07T08:18:45;96756.06;;;16.36;31.79
44079;BME280;29744;49.078;12.878;2023-12-07T08:23:45;96750.63;;;16.36;31.85
44079;BME280;29744;49.078;12.878;2023-12-07T08:28:45;96752.56;;;16.35;32.07
44079;BME280;29744;49.078;12.878;2023-12-07T08:33:46;96756.06;;;16.36;31.93
44079;BME280;29744;49.078;12.878;2023-12-07T08:38:47;96758.28;;;16.34;31.81
44079;BME280;29744;49.078;12.878;2023-12-07T08:43:47;96762.91;;;16.33;32.06
44079;BME280;29744;49.078;12.878;2023-12-07T08:48:47;96765.16;;;16.31;32.27
44079;BME280;29744;49.078;12.878;2023-12-07T08:53:48;96772.81;;;16.29;32.27
44079;BME280;29744;49.078;12.878;2023-12-07T08:58:48;96776.16;;;16.26;31.98
44079;BME280;29744;49.078;12.878;2023-12-07T09:03:48;96773.31;;;16.23;32.62
44079;BME280;29744;49.078;12.878;2023-12-07T09:08:52;96778.25;;;16.21;32.65
44079;BME280;29744;49.078;12.878;2023-12-07T09:13:52;96787.03;;;16.18;32.57
44079;BME280;29744;49.078;12.878;2023-12-07T09:18:53;96782.28;;;16.15;32.40
44079;BME280;29744;49.078;12.878;2023-12-07T09:23:53;96776.72;;;16.11;32.41
44079;BME280;29744;49.078;12.878;2023-12-07T09:28:53;96778.47;;;16.07;32.57
44079;BME280;29744;49.078;12.878;2023-12-07T09:33:54;96785.81;;;16.06;32.78
44079;BME280;29744;49.078;12.878;2023-12-07T09:38:54;96778.66;;;16.02;32.25
44079;BME280;29744;49.078;12.878;2023-12-07T09:43:54;96781.22;;;15.98;32.87
44079;BME280;29744;49.078;12.878;2023-12-07T09:48:55;96774.56;;;15.96;32.93
44079;BME280;29744;49.078;12.878;2023-12-07T09:53:55;96768.22;;;15.92;32.79
44079;BME280;29744;49.078;12.878;2023-12-07T09:58:56;96767.28;;;15.88;33.04
44079;BME280;29744;49.078;12.878;2023-12-07T10:04:21;96760.91;;;15.84;33.05
44079;BME280;29744;49.078;12.878;2023-12-07T10:09:26;96761.56;;;15.81;32.89
44079;BME280;29744;49.078;12.878;2023-12-07T10:14:27;96763.78;;;15.78;33.01
44079;BME280;29744;49.078;12.878;2023-12-07T10:19:27;96760.13;;;15.74;32.90
44079;BME280;29744;49.078;12.878;2023-12-07T10:24:28;96760.44;;;15.73;33.21
44079;BME280;29744;49.078;12.878;2023-12-07T10:29:30;96759.97;;;15.71;32.97
44079;BME280;29744;49.078;12.878;2023-12-07T10:34:32;96756.34;;;15.67;32.75
44079;BME280;29744;49.078;12.878;2023-12-07T10:39:34;96756.97;;;15.64;33.38
44079;BME280;29744;49.078;12.878;2023-12-07T10:44:35;96756.50;;;15.62;33.19
44079;BME280;29744;49.078;12.878;2023-12-07T10:49:43;96750.94;;;15.58;33.44
44079;BME280;29744;49.078;12.878;2023-12-07T10:55:10;96744.28;;;15.56;33.05
44079;BME280;29744;49.078;12.878;2023-12-07T11:00:13;96729.81;;;15.52;33.19
44079;BME280;29744;49.078;12.878;2023-12-07T11:05:14;96730.16;;;15.50;33.65
44079;BME280;29744;49.078;12.878;2023-12-07T11:10:22;96735.88;;;15.49;33.15
44079;BME280;29744;49.078;12.878;2023-12-07T11:15:26;96728.41;;;15.45;33.51
44079;BME280;29744;49.078;12.878;2023-12-07T11:20:40;96732.56;;;15.43;33.39
44079;BME280;29744;49.078;12.878;2023-12-07T11:25:43;96732.06;;;15.41;33.30
44079;BME280;29744;49.078;12.878;2023-12-07T11:30:47;96728.91;;;15.39;33.59
44079;BME280;29744;49.078;12.878;2023-12-07T11:41:04;96728.28;;;15.33;33.82
44079;BME280;29744;49.078;12.878;2023-12-07T11:46:04;96720.81;;;15.30;33.84
44079;BME280;29744;49.078;12.878;2023-12-07T11:51:06;96714.94;;;15.28;33.74
44079;BME280;29744;49.078;12.878;2023-12-07T11:56:11;96709.38;;;15.25;33.69
44079;BME280;29744;49.078;12.878;2023-12-07T12:01:13;96712.41;;;15.23;33.98
44079;BME280;29744;49.078;12.878;2023-12-07T12:06:13;96702.25;;;15.20;33.81
44079;BME280;29744;49.078;12.878;2023-12-07T12:11:14;96697.47;;;15.17;33.78
44079;BME280;29744;49.078;12.878;2023-12-07T12:16:14;96688.44;;;15.13;33.97
44079;BME280;29744;49.078;12.878;2023-12-07T12:21:14;96690.66;;;15.11;33.91
44079;BME280;29744;49.078;12.878;2023-12-07T12:26:16;96690.19;;;15.09;34.16
44079;BME280;29744;49.078;12.878;2023-12-07T12:31:17;96683.19;;;15.08;34.18
44079;BME280;29744;49.078;12.878;2023-12-07T12:36:18;96687.34;;;15.05;33.77
44079;BME280;29744;49.078;12.878;2023-12-07T12:41:22;96686.88;;;15.03;33.93
44079;BME280;29744;49.078;12.878;2023-12-07T12:46:23;96692.56;;;15.02;34.06
44079;BME280;29744;49.078;12.878;2023-12-07T12:51:25;96683.97;;;15.00;34.03
44079;BME280;29744;49.078;12.878;2023-12-07T12:56:27;96682.41;;;14.99;34.44
44079;BME280;29744;49.078;12.878;2023-12-07T13:01:28;96678.91;;;14.98;33.81
44079;BME280;29744;49.078;12.878;2023-12-07T13:06:28;96675.25;;;14.94;33.97
44079;BME280;29744;49.078;12.878;2023-12-07T13:11:29;96672.06;;;14.92;34.06
44079;BME280;29744;49.078;12.878;2023-12-07T13:16:29;96666.19;;;14.90;34.48
44079;BME280;29744;49.078;12.878;2023-12-07T13:21:29;96671.13;;;14.88;34.22
44079;BME280;29744;49.078;12.878;2023-12-07T13:26:30;96676.84;;;14.87;34.19
44079;BME280;29744;49.078;12.878;2023-12-07T13:31:30;96665.56;;;14.85;34.00
44079;BME280;29744;49.078;12.878;2023-12-07T13:36:31;96657.78;;;14.83;34.04
44079;BME280;29744;49.078;12.878;2023-12-07T13:41:33;96656.53;;;14.80;34.29
44079;BME280;29744;49.078;12.878;2023-12-07T13:46:34;96653.34;;;14.78;34.43
44079;BME280;29744;49.078;12.878;2023-12-07T13:51:34;96642.09;;;14.76;34.69
44079;BME280;29744;49.078;12.878;2023-12-07T13:56:35;96641.59;;;14.74;34.65
44079;BME280;29744;49.078;12.878;2023-12-07T14:01:35;96638.44;;;14.72;34.48
44079;BME280;29744;49.078;12.878;2023-12-07T14:06:35;96640.66;;;14.70;34.49
44079;BME280;29744;49.078;12.878;2023-12-07T14:11:36;96641.78;;;14.69;34.27
44079;BME280;29744;49.078;12.878;2023-12-07T14:16:36;96638.59;;;14.67;34.70
44079;BME280;29744;49.078;12.878;2023-12-07T14:21:36;96647.81;;;14.66;34.45
44079;BME280;29744;49.078;12.878;2023-12-07T14:26:37;96633.84;;;14.64;34.66
44079;BME280;29744;49.078;12.878;2023-12-07T14:36:37;96617.50;;;14.61;34.63
44079;BME280;29744;49.078;12.878;2023-12-07T14:41:39;96614.31;;;14.59;34.62
44079;BME280;29744;49.078;12.878;2023-12-07T14:46:42;96625.44;;;14.57;34.94
44079;BME280;29744;49.078;12.878;2023-12-07T14:51:43;96619.25;;;14.57;34.87
44079;BME280;29744;49.078;12.878;2023-12-07T14:56:43;96626.88;;;14.55;34.83
44079;BME280;29744;49.078;12.878;2023-12-07T15:01:44;96625.59;;;14.52;34.51
44079;BME280;29744;49.078;12.878;2023-12-07T15:06:44;96628.59;;;14.50;34.75
44079;BME280;29744;49.078;12.878;2023-12-07T15:11:45;96624.31;;;14.49;34.91
44079;BME280;29744;49.078;12.878;2023-12-07T15:16:46;96626.53;;;14.47;34.52
44079;BME280;29744;49.078;12.878;2023-12-07T15:21:47;96625.75;;;14.47;35.04
44079;BME280;29744;49.078;12.878;2023-12-07T15:26:50;96619.88;;;14.45;34.70
44079;BME280;29744;49.078;12.878;2023-12-07T15:31:50;96627.50;;;14.43;34.53
44079;BME280;29744;49.078;12.878;2023-12-07T15:36:51;96623.22;;;14.42;34.54
44079;BME280;29744;49.078;12.878;2023-12-07T15:41:51;96624.66;;;14.39;35.02
44079;BME280;29744;49.078;12.878;2023-12-07T15:46:52;96621.47;;;14.37;34.84
44079;BME280;29744;49.078;12.878;2023-12-07T15:51:52;96611.78;;;14.36;34.58
44079;BME280;29744;49.078;12.878;2023-12-07T15:56:53;96616.41;;;14.36;34.90
44079;BME280;29744;49.078;12.878;2023-12-07T16:01:53;96617.03;;;14.33;34.95
44079;BME280;29744;49.078;12.878;2023-12-07T16:06:53;96622.44;;;14.33;35.04
44079;BME280;29744;49.078;12.878;2023-12-07T16:11:54;96614.34;;;14.33;35.11
44079;BME280;29744;49.078;12.878;2023-12-07T16:16:54;96610.53;;;14.34;34.83
44079;BME280;29744;49.078;12.878;2023-12-07T16:21:55;96616.41;;;14.36;35.29
44079;BME280;29744;49.078;12.878;2023-12-07T16:26:55;96620.03;;;14.40;34.81
44079;BME280;29744;49.078;12.878;2023-12-07T16:31:56;96627.66;;;14.46;34.81
44079;BME280;29744;49.078;12.878;2023-12-07T16:36:56;96621.31;;;14.51;35.09
44079;BME280;29744;49.078;12.878;2023-12-07T16:41:57;96615.09;;;14.59;34.95
44079;BME280;29744;49.078;12.878;2023-12-07T16:46:57;96618.59;;;14.68;35.22
44079;BME280;29744;49.078;12.878;2023-12-07T16:51:58;96627.47;;;14.77;34.84
44079;BME280;29744;49.078;12.878;2023-12-07T16:56:59;96620.63;;;14.89;34.92
44079;BME280;29744;49.078;12.878;2023-12-07T17:02:00;96629.97;;;15.00;35.19
44079;BME280;29744;49.078;12.878;2023-12-07T17:07:00;96622.00;;;15.12;34.84
44079;BME280;29744;49.078;12.878;2023-12-07T17:12:01;96618.97;;;15.22;34.73
44079;BME280;29744;49.078;12.878;2023-12-07T17:17:01;96631.47;;;15.35;34.57
44079;BME280;29744;49.078;12.878;2023-12-07T17:22:02;96632.69;;;15.46;34.40
44079;BME280;29744;49.078;12.878;2023-12-07T17:27:03;96636.75;;;15.61;34.25
44079;BME280;29744;49.078;12.878;2023-12-07T17:32:03;96619.84;;;15.73;34.49
44079;BME280;29744;49.078;12.878;2023-12-07T17:37:05;96618.06;;;15.86;34.22
44079;BME280;29744;49.078;12.878;2023-12-07T17:42:05;96625.47;;;15.97;34.33
44079;BME280;29744;49.078;12.878;2023-12-07T17:47:06;96616.97;;;16.07;34.41
44079;BME280;29744;49.078;12.878;2023-12-07T17:52:07;96607.31;;;16.19;34.06
44079;BME280;29744;49.078;12.878;2023-12-07T17:57:07;96600.84;;;16.32;34.04
44079;BME280;29744;49.078;12.878;2023-12-07T18:02:08;96612.44;;;16.41;34.27
44079;BME280;29744;49.078;12.878;2023-12-07T18:07:08;96611.22;;;16.51;33.94
44079;BME280;29744;49.078;12.878;2023-12-07T18:12:08;96612.78;;;16.60;33.77
44079;BME280;29744;49.078;12.878;2023-12-07T18:17:09;96604.56;;;16.69;33.92
44079;BME280;29744;49.078;12.878;2023-12-07T18:22:09;96594.44;;;16.78;33.61
44079;BME280;29744;49.078;12.878;2023-12-07T18:27:09;96591.97;;;16.85;33.83
44079;BME280;29744;49.078;12.878;2023-12-07T18:32:10;96579.94;;;16.95;33.54
44079;BME280;29744;49.078;12.878;2023-12-07T18:37:12;96576.66;;;17.01;33.54
44079;BME280;29744;49.078;12.878;2023-12-07T18:42:12;96571.47;;;17.09;33.70
44079;BME280;29744;49.078;12.878;2023-12-07T18:47:13;96564.72;;;17.15;33.67
44079;BME280;29744;49.078;12.878;2023-12-07T18:52:14;96562.56;;;17.20;33.37
44079;BME280;29744;49.078;12.878;2023-12-07T18:57:14;96553.44;;;17.25;33.45
44079;BME280;29744;49.078;12.878;2023-12-07T19:02:15;96550.53;;;17.30;33.11
44079;BME280;29744;49.078;12.878;2023-12-07T19:07:15;96539.81;;;17.33;33.17
44079;BME280;29744;49.078;12.878;2023-12-07T19:12:16;96531.00;;;17.36;33.17
44079;BME280;29744;49.078;12.878;2023-12-07T19:17:16;96516.31;;;17.38;33.20
44079;BME280;29744;49.078;12.878;2023-12-07T19:22:16;96503.19;;;17.40;33.25
44079;BME280;29744;49.078;12.878;2023-12-07T19:27:17;96498.13;;;17.38;32.70
44079;BME280;29744;49.078;12.878;2023-12-07T19:32:17;96485.69;;;17.37;32.63
44079;BME280;29744;49.078;12.878;2023-12-07T19:37:17;96474.06;;;17.36;32.81
44079;BME280;29744;49.078;12.878;2023-12-07T19:42:18;96475.09;;;17.32;32.59
44079;BME280;29744;49.078;12.878;2023-12-07T19:47:18;96478.47;;;17.29;33.10
44079;BME280;29744;49.078;12.878;2023-12-07T19:52:18;96468.28;;;17.26;32.62
44079;BME280;29744;49.078;12.878;2023-12-07T19:57:19;96464.66;;;17.22;32.95
44079;BME280;29744;49.078;12.878;2023-12-07T20:02:19;96464.91;;;17.17;32.58
44079;BME280;29744;49.078;12.878;2023-12-07T20:07:19;96457.78;;;17.12;32.73
44079;BME280;29744;49.078;12.878;2023-12-07T20:12:21;96457.69;;;17.09;33.06
44079;BME280;29744;49.078;12.878;2023-12-07T20:17:21;96453.28;;;17.04;32.84
44079;BME280;29744;49.078;12.878;2023-12-07T20:22:21;96457.34;;;16.98;33.13
44079;BME280;29744;49.078;12.878;2023-12-07T20:27:22;96440.19;;;16.94;32.88
44079;BME280;29744;49.078;12.878;2023-12-07T20:32:22;96436.91;;;16.88;32.90
44079;BME280;29744;49.078;12.878;2023-12-07T20:37:22;96436.34;;;16.83;33.28
44079;BME280;29744;49.078;12.878;2023-12-07T20:42:23;96441.19;;;16.77;32.92
44079;BME280;29744;49.078;12.878;2023-12-07T20:47:23;96438.38;;;16.73;33.04
44079;BME280;29744;49.078;12.878;2023-12-07T20:52:24;96422.34;;;16.68;33.48
44079;BME280;29744;49.078;12.878;2023-12-07T20:57:25;96411.41;;;16.65;33.38
44079;BME280;29744;49.078;12.878;2023-12-07T21:02:25;96405.09;;;16.61;33.14
44079;BME280;29744;49.078;12.878;2023-12-07T21:07:26;96398.31;;;16.55;33.47
44079;BME280;29744;49.078;12.878;2023-12-07T21:12:26;96388.91;;;16.52;33.23
44079;BME280;29744;49.078;12.878;2023-12-07T21:17:26;96369.84;;;16.49;33.10
44079;BME280;29744;49.078;12.878;2023-12-07T21:22:27;96364.31;;;16.45;33.08
44079;BME280;29744;49.078;12.878;2023-12-07T21:27:27;96359.59;;;16.42;33.06
44079;BME280;29744;49.078;12.878;2023-12-07T21:32:29;96364.84;;;16.38;33.41
44079;BME280;29744;49.078;12.878;2023-12-07T21:37:29;96364.75;;;16.35;33.22
44079;BME280;29744;49.078;12.878;2023-12-07T21:42:30;96356.84;;;16.30;33.47
44079;BME280;29744;49.078;12.878;2023-12-07T21:47:30;96355.94;;;16.26;33.35
44079;BME280;29744;49.078;12.878;2023-12-07T21:52:31;96360.78;;;16.20;33.19
44079;BME280;29744;49.078;12.878;2023-12-07T21:57:31;96339.00;;;16.17;33.52
44079;BME280;29744;49.078;12.878;2023-12-07T22:02:31;96329.19;;;16.12;33.79
44079;BME280;29744;49.078;12.878;2023-12-07T22:07:32;96322.53;;;16.09;33.43
44079;BME280;29744;49.078;12.878;2023-12-07T22:12:32;96326.25;;;16.05;33.25
44079;BME280;29744;49.078;12.878;2023-12-07T22:17:32;96336.16;;;16.01;33.57
44079;BME280;29744;49.078;12.878;2023-12-07T22:22:36;96332.22;;;15.98;33.45
44079;BME280;29744;49.078;12.878;2023-12-07T22:27:36;96326.69;;;15.95;33.61
44079;BME280;29744;49.078;12.878;2023-12-07T22:32:37;96335.81;;;15.90;33.74
44079;BME280;29744;49.078;12.878;2023-12-07T22:37:37;96335.69;;;15.87;33.85
44079;BME280;29744;49.078;12.878;2023-12-07T22:42:38;96330.16;;;15.83;33.60
44079;BME280;29744;49.078;12.878;2023-12-07T22:47:38;96331.63;;;15.81;33.76
44079;BME280;29744;49.078;12.878;2023-12-07T22:52:38;96319.06;;;15.76;33.88
44079;BME280;29744;49.078;12.878;2023-12-07T22:57:39;96311.97;;;15.71;33.98
44079;BME280;29744;49.078;12.878;2023-12-07T23:02:39;96295.63;;;15.68;33.96
44079;BME280;29744;49.078;12.878;2023-12-07T23:07:40;96277.69;;;15.63;33.72
44079;BME280;29744;49.078;12.878;2023-12-07T23:12:40;96262.94;;;15.61;34.13
44079;BME280;29744;49.078;12.878;2023-12-07T23:17:40;96250.41;;;15.56;33.78
44079;BME280;29744;49.078;12.878;2023-12-07T23:22:41;96240.63;;;15.52;33.66
44079;BME280;29744;49.078;12.878;2023-12-07T23:27:41;96227.78;;;15.49;34.12
44079;BME280;29744;49.078;12.878;2023-12-07T23:32:41;96214.13;;;15.45;34.27
44079;BME280;29744;49.078;12.878;2023-12-07T23:37:42;96204.34;;;15.40;34.03
44079;BME280;29744;49.078;12.878;2023-12-07T23:42:42;96187.22;;;15.36;34.05
44079;BME280;29744;49.078;12.878;2023-12-07T23:47:42;96177.06;;;15.33;33.98
44079;BME280;29744;49.078;12.878;2023-12-07T23:52:43;96169.63;;;15.30;33.97
44079;BME280;29744;49.078;12.878;2023-12-07T23:57:43;96161.75;;;15.25;34.09
